sensor_id;sensor_type;location;lat;lon;timestamp;temperature;humidity
71304;DHT22;59091;47.446;19.148;2023-03-26T00:01:13;10.38;60.00
71304;DHT22;59091;47.446;19.148;2023-03-26T00:03:40;10.24;60.27
71304;DHT22;59091;47.446;19.148;2023-03-26T00:06:10;10.34;59.75
71304;DHT22;59091;47.446;19.148;2023-03-26T00:08:38;10.44;59.68
71304;DHT22;59091;47.446;19.148;2023-03-26T00:11:06;10.54;59.12
71304;DHT22;59091;47.446;19.148;2023-03-26T00:13:31;10.55;58.91
71304;DHT22;59091;47.446;19.148;2023-03-26T00:15:57;10.60;58.84
71304;DHT22;59091;47.446;19.148;2023-03-26T00:18:23;10.67;58.71
71304;DHT22;59091;47.446;19.148;2023-03-26T00:20:59;10.71;58.40
71304;DHT22;59091;47.446;19.148;2023-03-26T00:23:26;10.69;58.80
71304;DHT22;59091;47.446;19.148;2023-03-26T00:25:52;10.65;59.03
71304;DHT22;59091;47.446;19.148;2023-03-26T00:28:18;10.61;59.20
71304;DHT22;59091;47.446;19.148;2023-03-26T00:30:47;10.61;59.18
71304;DHT22;59091;47.446;19.148;2023-03-26T00:33:13;10.61;59.29
71304;DHT22;59091;47.446;19.148;2023-03-26T00:35:42;10.46;59.75
71304;DHT22;59091;47.446;19.148;2023-03-26T00:38:14;10.40;59.46
71304;DHT22;59091;47.446;19.148;2023-03-26T00:40:39;10.24;59.85
71304;DHT22;59091;47.446;19.148;2023-03-26T00:43:11;10.00;60.65
71304;DHT22;59091;47.446;19.148;2023-03-26T00:45:53;10.05;60.57
71304;DHT22;59091;47.446;19.148;2023-03-26T00:48:20;10.05;60.53
71304;DHT22;59091;47.446;19.148;2023-03-26T00:50:47;10.14;60.31
71304;DHT22;59091;47.446;19.148;2023-03-26T00:53:14;10.10;60.22
71304;DHT22;59091;47.446;19.148;2023-03-26T00:55:44;10.13;59.80
71304;DHT22;59091;47.446;19.148;2023-03-26T00:58:11;10.10;60.07
71304;DHT22;59091;47.446;19.148;2023-03-26T01:00:43;10.13;59.82
71304;DHT22;59091;47.446;19.148;2023-03-26T01:03:13;10.07;59.99
71304;DHT22;59091;47.446;19.148;2023-03-26T01:05:49;10.18;59.53
71304;DHT22;59091;47.446;19.148;2023-03-26T01:10:49;10.10;59.84
71304;DHT22;59091;47.446;19.148;2023-03-26T01:13:21;10.13;59.84
71304;DHT22;59091;47.446;19.148;2023-03-26T01:15:48;10.16;59.77
71304;DHT22;59091;47.446;19.148;2023-03-26T01:18:24;10.03;59.96
71304;DHT22;59091;47.446;19.148;2023-03-26T01:20:52;9.85;60.73
71304;DHT22;59091;47.446;19.148;2023-03-26T01:23:28;10.00;60.56
71304;DHT22;59091;47.446;19.148;2023-03-26T01:26:05;9.93;60.66
71304;DHT22;59091;47.446;19.148;2023-03-26T01:28:34;9.90;60.80
71304;DHT22;59091;47.446;19.148;2023-03-26T01:33:59;9.86;60.42
71304;DHT22;59091;47.446;19.148;2023-03-26T01:36:53;9.79;60.59
71304;DHT22;59091;47.446;19.148;2023-03-26T01:39:25;9.81;60.67
71304;DHT22;59091;47.446;19.148;2023-03-26T01:42:06;9.90;60.48
71304;DHT22;59091;47.446;19.148;2023-03-26T01:44:39;10.00;60.18
71304;DHT22;59091;47.446;19.148;2023-03-26T01:47:07;9.83;60.73
71304;DHT22;59091;47.446;19.148;2023-03-26T01:49:33;9.83;60.51
71304;DHT22;59091;47.446;19.148;2023-03-26T01:51:59;9.83;60.63
71304;DHT22;59091;47.446;19.148;2023-03-26T01:54:27;9.86;60.24
71304;DHT22;59091;47.446;19.148;2023-03-26T02:05:24;10.05;59.62
71304;DHT22;59091;47.446;19.148;2023-03-26T02:08:01;10.09;59.54
71304;DHT22;59091;47.446;19.148;2023-03-26T02:10:33;10.07;59.73
71304;DHT22;59091;47.446;19.148;2023-03-26T02:13:00;10.03;59.78
71304;DHT22;59091;47.446;19.148;2023-03-26T02:15:26;10.03;60.01
71304;DHT22;59091;47.446;19.148;2023-03-26T02:17:51;10.07;59.93
71304;DHT22;59091;47.446;19.148;2023-03-26T02:20:19;10.02;60.19
71304;DHT22;59091;47.446;19.148;2023-03-26T02:22:46;10.07;60.10
71304;DHT22;59091;47.446;19.148;2023-03-26T02:25:15;10.05;60.05
71304;DHT22;59091;47.446;19.148;2023-03-26T02:27:41;10.00;60.12
71304;DHT22;59091;47.446;19.148;2023-03-26T02:30:10;10.05;60.05
71304;DHT22;59091;47.446;19.148;2023-03-26T02:32:36;10.03;59.98
71304;DHT22;59091;47.446;19.148;2023-03-26T02:35:03;10.00;59.90
71304;DHT22;59091;47.446;19.148;2023-03-26T02:37:30;10.00;59.61
71304;DHT22;59091;47.446;19.148;2023-03-26T02:40:00;9.97;59.64
71304;DHT22;59091;47.446;19.148;2023-03-26T02:42:26;9.90;59.92
71304;DHT22;59091;47.446;19.148;2023-03-26T02:44:51;9.92;60.01
71304;DHT22;59091;47.446;19.148;2023-03-26T02:47:17;9.90;60.39
71304;DHT22;59091;47.446;19.148;2023-03-26T02:49:43;9.85;60.32
71304;DHT22;59091;47.446;19.148;2023-03-26T02:52:08;9.81;60.33
71304;DHT22;59091;47.446;19.148;2023-03-26T02:54:34;9.78;60.49
71304;DHT22;59091;47.446;19.148;2023-03-26T02:57:00;9.76;60.75
71304;DHT22;59091;47.446;19.148;2023-03-26T02:59:26;9.66;60.51
71304;DHT22;59091;47.446;19.148;2023-03-26T03:01:52;9.63;60.96
71304;DHT22;59091;47.446;19.148;2023-03-26T03:04:17;9.59;60.99
71304;DHT22;59091;47.446;19.148;2023-03-26T03:06:43;9.54;60.99
71304;DHT22;59091;47.446;19.148;2023-03-26T03:09:09;9.45;61.28
71304;DHT22;59091;47.446;19.148;2023-03-26T03:11:36;9.46;61.45
71304;DHT22;59091;47.446;19.148;2023-03-26T03:14:02;9.38;61.73
71304;DHT22;59091;47.446;19.148;2023-03-26T03:16:29;9.34;61.81
71304;DHT22;59091;47.446;19.148;2023-03-26T03:18:54;9.34;61.84
71304;DHT22;59091;47.446;19.148;2023-03-26T03:21:25;9.27;61.88
71304;DHT22;59091;47.446;19.148;2023-03-26T03:23:54;9.21;62.22
71304;DHT22;59091;47.446;19.148;2023-03-26T03:26:22;9.18;62.22
71304;DHT22;59091;47.446;19.148;2023-03-26T03:28:53;9.15;62.38
71304;DHT22;59091;47.446;19.148;2023-03-26T03:31:18;9.10;62.50
71304;DHT22;59091;47.446;19.148;2023-03-26T03:33:44;9.08;62.51
71304;DHT22;59091;47.446;19.148;2023-03-26T03:36:11;9.01;62.64
71304;DHT22;59091;47.446;19.148;2023-03-26T03:38:38;8.97;62.96
71304;DHT22;59091;47.446;19.148;2023-03-26T03:41:05;8.88;63.38
71304;DHT22;59091;47.446;19.148;2023-03-26T03:43:31;8.90;63.29
71304;DHT22;59091;47.446;19.148;2023-03-26T03:45:57;8.90;63.39
71304;DHT22;59091;47.446;19.148;2023-03-26T03:48:23;8.84;63.55
71304;DHT22;59091;47.446;19.148;2023-03-26T03:50:48;8.84;63.66
71304;DHT22;59091;47.446;19.148;2023-03-26T03:53:14;8.81;63.67
71304;DHT22;59091;47.446;19.148;2023-03-26T03:55:41;8.84;63.47
71304;DHT22;59091;47.446;19.148;2023-03-26T03:58:06;8.85;63.49
71304;DHT22;59091;47.446;19.148;2023-03-26T04:00:34;8.81;63.60
71304;DHT22;59091;47.446;19.148;2023-03-26T04:03:03;8.85;63.51
71304;DHT22;59091;47.446;19.148;2023-03-26T04:05:31;8.85;63.43
71304;DHT22;59091;47.446;19.148;2023-03-26T04:07:56;8.87;63.27
71304;DHT22;59091;47.446;19.148;2023-03-26T04:10:24;8.80;63.44
71304;DHT22;59091;47.446;19.148;2023-03-26T04:12:49;8.87;63.56
71304;DHT22;59091;47.446;19.148;2023-03-26T04:15:15;8.84;63.68
71304;DHT22;59091;47.446;19.148;2023-03-26T04:17:40;8.83;63.50
71304;DHT22;59091;47.446;19.148;2023-03-26T04:20:08;8.81;63.35
71304;DHT22;59091;47.446;19.148;2023-03-26T04:22:34;8.85;63.24
71304;DHT22;59091;47.446;19.148;2023-03-26T04:25:00;8.84;63.26
71304;DHT22;59091;47.446;19.148;2023-03-26T04:27:29;8.87;62.77
71304;DHT22;59091;47.446;19.148;2023-03-26T04:29:57;8.81;62.51
71304;DHT22;59091;47.446;19.148;2023-03-26T04:32:27;8.81;62.48
71304;DHT22;59091;47.446;19.148;2023-03-26T04:34:59;8.81;62.59
71304;DHT22;59091;47.446;19.148;2023-03-26T04:37:31;8.80;62.66
71304;DHT22;59091;47.446;19.148;2023-03-26T04:39:59;8.81;62.57
71304;DHT22;59091;47.446;19.148;2023-03-26T04:42:26;8.79;62.77
71304;DHT22;59091;47.446;19.148;2023-03-26T04:44:52;8.77;62.73
71304;DHT22;59091;47.446;19.148;2023-03-26T04:47:18;8.79;62.88
71304;DHT22;59091;47.446;19.148;2023-03-26T04:49:45;8.72;62.96
71304;DHT22;59091;47.446;19.148;2023-03-26T04:52:12;8.72;63.50
71304;DHT22;59091;47.446;19.148;2023-03-26T04:54:39;8.73;63.85
71304;DHT22;59091;47.446;19.148;2023-03-26T04:57:12;8.76;63.80
71304;DHT22;59091;47.446;19.148;2023-03-26T04:59:40;8.76;64.03
71304;DHT22;59091;47.446;19.148;2023-03-26T05:02:06;8.76;63.89
71304;DHT22;59091;47.446;19.148;2023-03-26T05:04:32;8.74;63.88
71304;DHT22;59091;47.446;19.148;2023-03-26T05:07:01;8.81;63.90
71304;DHT22;59091;47.446;19.148;2023-03-26T05:09:27;8.85;64.00
71304;DHT22;59091;47.446;19.148;2023-03-26T05:11:52;8.90;64.15
71304;DHT22;59091;47.446;19.148;2023-03-26T05:14:18;8.97;64.09
71304;DHT22;59091;47.446;19.148;2023-03-26T05:16:45;9.07;63.91
71304;DHT22;59091;47.446;19.148;2023-03-26T05:19:12;9.18;64.02
71304;DHT22;59091;47.446;19.148;2023-03-26T05:21:37;9.24;63.96
71304;DHT22;59091;47.446;19.148;2023-03-26T05:24:03;9.30;63.85
71304;DHT22;59091;47.446;19.148;2023-03-26T05:26:31;9.25;63.74
71304;DHT22;59091;47.446;19.148;2023-03-26T05:28:56;9.51;63.27
71304;DHT22;59091;47.446;19.148;2023-03-26T05:31:22;9.55;63.10
71304;DHT22;59091;47.446;19.148;2023-03-26T05:33:48;9.63;62.46
71304;DHT22;59091;47.446;19.148;2023-03-26T05:36:14;9.85;61.72
71304;DHT22;59091;47.446;19.148;2023-03-26T05:38:41;10.06;61.42
71304;DHT22;59091;47.446;19.148;2023-03-26T05:41:11;10.26;60.79
71304;DHT22;59091;47.446;19.148;2023-03-26T05:43:36;10.36;60.51
71304;DHT22;59091;47.446;19.148;2023-03-26T05:46:02;10.40;60.02
71304;DHT22;59091;47.446;19.148;2023-03-26T05:48:27;10.48;59.83
71304;DHT22;59091;47.446;19.148;2023-03-26T05:50:55;10.38;59.65
71304;DHT22;59091;47.446;19.148;2023-03-26T05:53:22;10.53;60.48
71304;DHT22;59091;47.446;19.148;2023-03-26T05:55:48;10.61;59.59
71304;DHT22;59091;47.446;19.148;2023-03-26T05:58:31;10.65;58.78
71304;DHT22;59091;47.446;19.148;2023-03-26T06:01:08;10.61;59.54
71304;DHT22;59091;47.446;19.148;2023-03-26T06:03:36;10.72;58.90
71304;DHT22;59091;47.446;19.148;2023-03-26T06:06:05;10.89;58.05
71304;DHT22;59091;47.446;19.148;2023-03-26T06:08:30;10.89;58.27
71304;DHT22;59091;47.446;19.148;2023-03-26T06:11:04;11.01;63.04
71304;DHT22;59091;47.446;19.148;2023-03-26T06:13:32;11.09;57.73
71304;DHT22;59091;47.446;19.148;2023-03-26T06:15:58;11.09;56.90
71304;DHT22;59091;47.446;19.148;2023-03-26T06:18:24;11.30;60.12
71304;DHT22;59091;47.446;19.148;2023-03-26T06:20:50;11.32;56.36
71304;DHT22;59091;47.446;19.148;2023-03-26T06:23:16;11.26;55.85
71304;DHT22;59091;47.446;19.148;2023-03-26T06:25:42;11.39;55.87
71304;DHT22;59091;47.446;19.148;2023-03-26T06:28:12;11.33;55.82
71304;DHT22;59091;47.446;19.148;2023-03-26T06:30:37;11.40;55.57
71304;DHT22;59091;47.446;19.148;2023-03-26T06:33:03;11.44;55.49
71304;DHT22;59091;47.446;19.148;2023-03-26T06:35:30;11.49;55.98
71304;DHT22;59091;47.446;19.148;2023-03-26T06:37:56;11.39;55.46
71304;DHT22;59091;47.446;19.148;2023-03-26T06:40:21;11.39;55.68
71304;DHT22;59091;47.446;19.148;2023-03-26T06:42:47;11.56;55.03
71304;DHT22;59091;47.446;19.148;2023-03-26T06:45:12;11.63;55.30
71304;DHT22;59091;47.446;19.148;2023-03-26T06:47:38;11.52;55.50
71304;DHT22;59091;47.446;19.148;2023-03-26T06:50:04;11.57;54.70
71304;DHT22;59091;47.446;19.148;2023-03-26T06:52:30;11.76;53.94
71304;DHT22;59091;47.446;19.148;2023-03-26T06:54:55;11.87;55.91
71304;DHT22;59091;47.446;19.148;2023-03-26T06:57:21;12.00;54.05
71304;DHT22;59091;47.446;19.148;2023-03-26T06:59:46;12.08;54.33
71304;DHT22;59091;47.446;19.148;2023-03-26T07:02:12;12.20;54.12
71304;DHT22;59091;47.446;19.148;2023-03-26T07:04:37;12.35;53.34
71304;DHT22;59091;47.446;19.148;2023-03-26T07:07:03;12.39;52.60
71304;DHT22;59091;47.446;19.148;2023-03-26T07:09:29;12.49;52.35
71304;DHT22;59091;47.446;19.148;2023-03-26T07:11:55;12.52;52.81
71304;DHT22;59091;47.446;19.148;2023-03-26T07:14:21;12.60;52.72
71304;DHT22;59091;47.446;19.148;2023-03-26T07:16:49;12.78;52.39
71304;DHT22;59091;47.446;19.148;2023-03-26T07:19:15;12.70;52.45
71304;DHT22;59091;47.446;19.148;2023-03-26T07:21:41;12.63;53.14
71304;DHT22;59091;47.446;19.148;2023-03-26T07:24:09;12.59;52.91
71304;DHT22;59091;47.446;19.148;2023-03-26T07:26:59;12.79;53.79
71304;DHT22;59091;47.446;19.148;2023-03-26T07:29:42;12.49;54.10
71304;DHT22;59091;47.446;19.148;2023-03-26T07:38:13;12.38;55.28
71304;DHT22;59091;47.446;19.148;2023-03-26T07:45:48;12.79;55.44
71304;DHT22;59091;47.446;19.148;2023-03-26T07:48:22;12.80;54.01
71304;DHT22;59091;47.446;19.148;2023-03-26T07:50:50;12.78;54.46
71304;DHT22;59091;47.446;19.148;2023-03-26T07:53:16;13.11;53.96
71304;DHT22;59091;47.446;19.148;2023-03-26T07:56:11;13.37;53.90
71304;DHT22;59091;47.446;19.148;2023-03-26T08:06:57;14.01;51.18
71304;DHT22;59091;47.446;19.148;2023-03-26T08:17:53;14.62;49.37
71304;DHT22;59091;47.446;19.148;2023-03-26T08:21:03;14.74;48.62
71304;DHT22;59091;47.446;19.148;2023-03-26T08:26:36;14.93;47.23
71304;DHT22;59091;47.446;19.148;2023-03-26T08:29:19;14.93;47.67
71304;DHT22;59091;47.446;19.148;2023-03-26T08:31:47;14.94;48.64
71304;DHT22;59091;47.446;19.148;2023-03-26T08:34:13;15.07;47.99
71304;DHT22;59091;47.446;19.148;2023-03-26T08:36:38;14.98;47.76
71304;DHT22;59091;47.446;19.148;2023-03-26T08:39:05;14.90;47.73
71304;DHT22;59091;47.446;19.148;2023-03-26T08:47:15;15.25;58.16
71304;DHT22;59091;47.446;19.148;2023-03-26T08:55:21;15.62;47.23
71304;DHT22;59091;47.446;19.148;2023-03-26T09:03:22;16.00;45.76
71304;DHT22;59091;47.446;19.148;2023-03-26T09:22:52;17.12;42.41
71304;DHT22;59091;47.446;19.148;2023-03-26T09:33:55;17.23;43.74
71304;DHT22;59091;47.446;19.148;2023-03-26T09:39:22;17.27;44.29
71304;DHT22;59091;47.446;19.148;2023-03-26T09:55:41;17.88;40.79
71304;DHT22;59091;47.446;19.148;2023-03-26T10:00:59;17.30;40.22
71304;DHT22;59091;47.446;19.148;2023-03-26T10:03:52;17.26;40.09
71304;DHT22;59091;47.446;19.148;2023-03-26T10:12:03;17.20;43.09
71304;DHT22;59091;47.446;19.148;2023-03-26T10:20:35;16.64;44.11
71304;DHT22;59091;47.446;19.148;2023-03-26T10:23:30;16.91;44.44
71304;DHT22;59091;47.446;19.148;2023-03-26T10:28:51;16.75;51.01
71304;DHT22;59091;47.446;19.148;2023-03-26T10:31:45;16.13;55.97
71304;DHT22;59091;47.446;19.148;2023-03-26T10:47:40;13.79;60.31
71304;DHT22;59091;47.446;19.148;2023-03-26T10:53:03;14.64;60.28
71304;DHT22;59091;47.446;19.148;2023-03-26T10:58:15;15.05;59.19
71304;DHT22;59091;47.446;19.148;2023-03-26T11:01:09;15.27;58.23
71304;DHT22;59091;47.446;19.148;2023-03-26T11:15:15;15.75;53.28
71304;DHT22;59091;47.446;19.148;2023-03-26T11:17:42;15.79;54.11
71304;DHT22;59091;47.446;19.148;2023-03-26T11:26:06;15.67;55.85
71304;DHT22;59091;47.446;19.148;2023-03-26T11:33:55;16.03;55.36
71304;DHT22;59091;47.446;19.148;2023-03-26T11:36:25;16.10;53.17
71304;DHT22;59091;47.446;19.148;2023-03-26T11:38:55;16.10;53.95
71304;DHT22;59091;47.446;19.148;2023-03-26T11:41:24;16.17;52.12
71304;DHT22;59091;47.446;19.148;2023-03-26T11:43:57;16.21;52.45
71304;DHT22;59091;47.446;19.148;2023-03-26T11:46:25;16.24;51.14
71304;DHT22;59091;47.446;19.148;2023-03-26T11:48:57;16.55;55.46
71304;DHT22;59091;47.446;19.148;2023-03-26T11:51:30;16.82;52.53
71304;DHT22;59091;47.446;19.148;2023-03-26T11:53:58;16.86;50.62
71304;DHT22;59091;47.446;19.148;2023-03-26T12:02:16;16.95;50.09
71304;DHT22;59091;47.446;19.148;2023-03-26T12:04:49;17.02;48.68
71304;DHT22;59091;47.446;19.148;2023-03-26T12:07:29;16.82;46.96
71304;DHT22;59091;47.446;19.148;2023-03-26T12:10:03;16.74;46.59
71304;DHT22;59091;47.446;19.148;2023-03-26T12:12:40;16.91;46.74
71304;DHT22;59091;47.446;19.148;2023-03-26T12:15:17;17.06;47.06
71304;DHT22;59091;47.446;19.148;2023-03-26T12:17:45;17.32;46.55
71304;DHT22;59091;47.446;19.148;2023-03-26T12:23:00;17.50;46.79
71304;DHT22;59091;47.446;19.148;2023-03-26T12:25:28;17.76;44.01
71304;DHT22;59091;47.446;19.148;2023-03-26T12:30:40;18.29;45.34
71304;DHT22;59091;47.446;19.148;2023-03-26T12:33:14;18.48;41.84
71304;DHT22;59091;47.446;19.148;2023-03-26T12:35:41;18.60;41.90
71304;DHT22;59091;47.446;19.148;2023-03-26T12:38:29;18.38;38.93
71304;DHT22;59091;47.446;19.148;2023-03-26T12:41:07;18.76;40.72
71304;DHT22;59091;47.446;19.148;2023-03-26T12:43:47;18.95;41.07
71304;DHT22;59091;47.446;19.148;2023-03-26T12:48:54;19.17;38.18
71304;DHT22;59091;47.446;19.148;2023-03-26T12:54:04;18.99;37.80
71304;DHT22;59091;47.446;19.148;2023-03-26T12:56:45;19.00;36.62
71304;DHT22;59091;47.446;19.148;2023-03-26T13:04:48;18.77;37.85
71304;DHT22;59091;47.446;19.148;2023-03-26T13:13:05;18.96;36.48
71304;DHT22;59091;47.446;19.148;2023-03-26T13:15:37;19.00;46.75
71304;DHT22;59091;47.446;19.148;2023-03-26T13:23:52;18.56;36.24
71304;DHT22;59091;47.446;19.148;2023-03-26T13:26:49;18.42;37.02
71304;DHT22;59091;47.446;19.148;2023-03-26T13:29:26;18.39;35.73
71304;DHT22;59091;47.446;19.148;2023-03-26T13:43:07;18.68;42.58
71304;DHT22;59091;47.446;19.148;2023-03-26T13:45:56;18.77;39.43
71304;DHT22;59091;47.446;19.148;2023-03-26T13:48:30;18.76;35.26
71304;DHT22;59091;47.446;19.148;2023-03-26T13:51:02;18.85;41.75
71304;DHT22;59091;47.446;19.148;2023-03-26T13:56:19;18.68;34.79
71304;DHT22;59091;47.446;19.148;2023-03-26T13:58:53;18.73;34.07
71304;DHT22;59091;47.446;19.148;2023-03-26T14:01:35;18.86;34.12
71304;DHT22;59091;47.446;19.148;2023-03-26T14:04:18;18.79;34.39
71304;DHT22;59091;47.446;19.148;2023-03-26T14:09:42;18.79;33.87
71304;DHT22;59091;47.446;19.148;2023-03-26T14:16:11;19.18;33.67
71304;DHT22;59091;47.446;19.148;2023-03-26T14:21:24;19.03;32.50
71304;DHT22;59091;47.446;19.148;2023-03-26T14:40:54;19.10;31.92
71304;DHT22;59091;47.446;19.148;2023-03-26T14:44:04;19.10;31.14
71304;DHT22;59091;47.446;19.148;2023-03-26T14:49:18;19.02;31.88
71304;DHT22;59091;47.446;19.148;2023-03-26T14:52:49;18.87;30.42
71304;DHT22;59091;47.446;19.148;2023-03-26T14:54:56;18.90;31.53
71304;DHT22;59091;47.446;19.148;2023-03-26T15:11:30;18.62;30.31
71304;DHT22;59091;47.446;19.148;2023-03-26T15:31:08;18.27;32.93
71304;DHT22;59091;47.446;19.148;2023-03-26T15:34:09;18.38;32.99
71304;DHT22;59091;47.446;19.148;2023-03-26T15:45:35;18.25;33.57
71304;DHT22;59091;47.446;19.148;2023-03-26T15:58:52;17.66;33.75
71304;DHT22;59091;47.446;19.148;2023-03-26T16:10:12;17.42;34.23
71304;DHT22;59091;47.446;19.148;2023-03-26T16:13:19;17.46;34.30
71304;DHT22;59091;47.446;19.148;2023-03-26T16:18:35;17.46;35.26
71304;DHT22;59091;47.446;19.148;2023-03-26T16:29:18;16.88;36.24
71304;DHT22;59091;47.446;19.148;2023-03-26T16:32:15;16.84;36.51
71304;DHT22;59091;47.446;19.148;2023-03-26T16:45:54;16.50;36.78
71304;DHT22;59091;47.446;19.148;2023-03-26T16:49:09;16.41;36.59
71304;DHT22;59091;47.446;19.148;2023-03-26T16:51:20;16.38;37.67
71304;DHT22;59091;47.446;19.148;2023-03-26T17:08:10;16.25;58.38
71304;DHT22;59091;47.446;19.148;2023-03-26T17:13:27;16.16;38.74
71304;DHT22;59091;47.446;19.148;2023-03-26T17:29:55;15.89;55.54
71304;DHT22;59091;47.446;19.148;2023-03-26T17:32:57;16.14;54.74
71304;DHT22;59091;47.446;19.148;2023-03-26T17:40:52;16.31;46.54
71304;DHT22;59091;47.446;19.148;2023-03-26T17:43:46;16.34;48.05
71304;DHT22;59091;47.446;19.148;2023-03-26T17:48:56;16.40;49.10
71304;DHT22;59091;47.446;19.148;2023-03-26T17:54:31;16.41;50.19
71304;DHT22;59091;47.446;19.148;2023-03-26T17:57:12;16.43;49.05
71304;DHT22;59091;47.446;19.148;2023-03-26T17:59:40;16.45;49.20
71304;DHT22;59091;47.446;19.148;2023-03-26T18:02:13;16.45;49.06
71304;DHT22;59091;47.446;19.148;2023-03-26T18:04:42;16.48;49.28
71304;DHT22;59091;47.446;19.148;2023-03-26T18:08:11;16.43;48.98
71304;DHT22;59091;47.446;19.148;2023-03-26T18:13:55;16.43;49.78
71304;DHT22;59091;47.446;19.148;2023-03-26T18:16:46;16.47;50.35
71304;DHT22;59091;47.446;19.148;2023-03-26T18:19:15;16.48;50.83
71304;DHT22;59091;47.446;19.148;2023-03-26T18:21:44;16.53;50.79
71304;DHT22;59091;47.446;19.148;2023-03-26T18:24:17;16.45;43.88
71304;DHT22;59091;47.446;19.148;2023-03-26T18:26:47;16.31;42.04
71304;DHT22;59091;47.446;19.148;2023-03-26T18:31:54;16.09;40.63
71304;DHT22;59091;47.446;19.148;2023-03-26T18:34:20;16.03;41.11
71304;DHT22;59091;47.446;19.148;2023-03-26T18:37:11;15.82;41.71
71304;DHT22;59091;47.446;19.148;2023-03-26T18:40:06;15.78;41.84
71304;DHT22;59091;47.446;19.148;2023-03-26T18:42:42;15.75;41.85
71304;DHT22;59091;47.446;19.148;2023-03-26T18:47:51;15.67;42.08
71304;DHT22;59091;47.446;19.148;2023-03-26T18:50:22;15.66;41.67
71304;DHT22;59091;47.446;19.148;2023-03-26T18:52:48;15.62;41.86
71304;DHT22;59091;47.446;19.148;2023-03-26T18:55:13;15.58;42.09
71304;DHT22;59091;47.446;19.148;2023-03-26T18:57:40;15.48;43.26
71304;DHT22;59091;47.446;19.148;2023-03-26T19:00:19;15.45;43.40
71304;DHT22;59091;47.446;19.148;2023-03-26T19:02:48;15.36;43.97
71304;DHT22;59091;47.446;19.148;2023-03-26T19:05:16;15.35;43.82
71304;DHT22;59091;47.446;19.148;2023-03-26T19:07:43;15.25;43.84
71304;DHT22;59091;47.446;19.148;2023-03-26T19:10:16;15.22;43.58
71304;DHT22;59091;47.446;19.148;2023-03-26T19:12:43;15.27;43.61
71304;DHT22;59091;47.446;19.148;2023-03-26T19:15:11;15.25;43.10
71304;DHT22;59091;47.446;19.148;2023-03-26T19:17:45;15.17;43.59
71304;DHT22;59091;47.446;19.148;2023-03-26T19:20:21;15.20;43.52
71304;DHT22;59091;47.446;19.148;2023-03-26T19:22:47;15.22;43.51
71304;DHT22;59091;47.446;19.148;2023-03-26T19:25:22;15.28;54.45
71304;DHT22;59091;47.446;19.148;2023-03-26T19:27:49;15.35;47.73
71304;DHT22;59091;47.446;19.148;2023-03-26T19:30:38;15.34;43.08
71304;DHT22;59091;47.446;19.148;2023-03-26T19:33:16;15.28;42.99
71304;DHT22;59091;47.446;19.148;2023-03-26T19:35:50;15.31;43.07
71304;DHT22;59091;47.446;19.148;2023-03-26T19:40:44;15.20;43.29
71304;DHT22;59091;47.446;19.148;2023-03-26T19:43:11;15.21;43.18
71304;DHT22;59091;47.446;19.148;2023-03-26T19:45:37;15.21;43.06
71304;DHT22;59091;47.446;19.148;2023-03-26T19:48:06;15.17;43.68
71304;DHT22;59091;47.446;19.148;2023-03-26T19:50:33;15.14;43.75
71304;DHT22;59091;47.446;19.148;2023-03-26T19:53:18;15.10;44.02
71304;DHT22;59091;47.446;19.148;2023-03-26T19:56:15;15.01;44.39
71304;DHT22;59091;47.446;19.148;2023-03-26T19:58:43;15.01;44.42
71304;DHT22;59091;47.446;19.148;2023-03-26T20:01:15;14.90;44.28
71304;DHT22;59091;47.446;19.148;2023-03-26T20:03:47;14.88;44.01
71304;DHT22;59091;47.446;19.148;2023-03-26T20:06:16;14.88;44.23
71304;DHT22;59091;47.446;19.148;2023-03-26T20:08:41;14.88;44.40
71304;DHT22;59091;47.446;19.148;2023-03-26T20:11:32;14.76;43.98
71304;DHT22;59091;47.446;19.148;2023-03-26T20:14:03;14.73;44.00
71304;DHT22;59091;47.446;19.148;2023-03-26T20:16:32;14.67;43.70
71304;DHT22;59091;47.446;19.148;2023-03-26T20:18:58;14.47;44.10
71304;DHT22;59091;47.446;19.148;2023-03-26T20:21:27;14.53;43.79
71304;DHT22;59091;47.446;19.148;2023-03-26T20:23:53;14.55;43.64
71304;DHT22;59091;47.446;19.148;2023-03-26T20:26:20;14.44;44.24
71304;DHT22;59091;47.446;19.148;2023-03-26T20:28:46;14.36;44.36
71304;DHT22;59091;47.446;19.148;2023-03-26T20:31:20;14.33;44.54
71304;DHT22;59091;47.446;19.148;2023-03-26T20:33:47;14.34;44.46
71304;DHT22;59091;47.446;19.148;2023-03-26T20:36:14;14.39;44.99
71304;DHT22;59091;47.446;19.148;2023-03-26T20:38:40;14.42;44.84
71304;DHT22;59091;47.446;19.148;2023-03-26T20:41:22;14.40;44.79
71304;DHT22;59091;47.446;19.148;2023-03-26T20:43:49;14.43;45.10
71304;DHT22;59091;47.446;19.148;2023-03-26T20:46:17;14.44;44.93
71304;DHT22;59091;47.446;19.148;2023-03-26T20:48:43;14.42;44.41
71304;DHT22;59091;47.446;19.148;2023-03-26T20:51:10;14.28;44.84
71304;DHT22;59091;47.446;19.148;2023-03-26T20:53:43;14.32;44.60
71304;DHT22;59091;47.446;19.148;2023-03-26T20:56:11;14.37;44.46
71304;DHT22;59091;47.446;19.148;2023-03-26T20:58:38;14.36;44.20
71304;DHT22;59091;47.446;19.148;2023-03-26T21:01:04;14.39;43.96
71304;DHT22;59091;47.446;19.148;2023-03-26T21:03:31;14.40;43.99
71304;DHT22;59091;47.446;19.148;2023-03-26T21:06:05;14.39;43.96
71304;DHT22;59091;47.446;19.148;2023-03-26T21:08:35;14.39;43.95
71304;DHT22;59091;47.446;19.148;2023-03-26T21:14:00;14.26;44.49
71304;DHT22;59091;47.446;19.148;2023-03-26T21:16:28;14.34;44.71
71304;DHT22;59091;47.446;19.148;2023-03-26T21:18:53;14.23;44.58
71304;DHT22;59091;47.446;19.148;2023-03-26T21:21:31;14.29;44.58
71304;DHT22;59091;47.446;19.148;2023-03-26T21:24:30;14.26;44.55
71304;DHT22;59091;47.446;19.148;2023-03-26T21:29:35;14.25;45.55
71304;DHT22;59091;47.446;19.148;2023-03-26T21:32:02;14.23;45.57
71304;DHT22;59091;47.446;19.148;2023-03-26T21:34:29;14.22;46.43
71304;DHT22;59091;47.446;19.148;2023-03-26T21:36:58;14.04;47.23
71304;DHT22;59091;47.446;19.148;2023-03-26T21:39:25;14.04;48.43
71304;DHT22;59091;47.446;19.148;2023-03-26T21:41:52;14.04;49.12
71304;DHT22;59091;47.446;19.148;2023-03-26T21:44:18;13.67;51.63
71304;DHT22;59091;47.446;19.148;2023-03-26T21:46:46;13.61;52.78
71304;DHT22;59091;47.446;19.148;2023-03-26T21:49:14;13.60;52.51
71304;DHT22;59091;47.446;19.148;2023-03-26T21:51:40;13.55;53.18
71304;DHT22;59091;47.446;19.148;2023-03-26T21:54:21;13.55;53.54
71304;DHT22;59091;47.446;19.148;2023-03-26T22:05:15;13.57;55.68
71304;DHT22;59091;47.446;19.148;2023-03-26T22:10:39;13.62;56.15
71304;DHT22;59091;47.446;19.148;2023-03-26T22:13:04;13.67;56.36
71304;DHT22;59091;47.446;19.148;2023-03-26T22:15:30;13.68;56.59